Go Pro

iShares MSCI Intl Quality Factor ETF (IQLT) Institutional Ownership

iShares MSCI Intl Quality Factor ETF logo
$51.62 +0.04 (+0.08%)
As of 11:24 AM Eastern
This is a fair market value price provided by Massive. Learn more.

Institutional Ownership Changes (13F Filings) for iShares MSCI Intl Quality Factor ETF (NYSEARCA:IQLT)

Number of
Institutional Buyers
(last 12 months)
368
Total
Institutional Inflows
(last 12 months)
$2.21B
Number of
Institutional Sellers
(last 12 months)
237
Total
Institutional Outflows
(last 12 months)
$4.33B
Get IQLT Insider Trade Alerts

Want to know when executives and insiders are buying or selling iShares MSCI Intl Quality Factor ETF stock? Sign up for InsiderTrades.com's daily newsletter to get the latest insider transactions delivered to your inbox daily.

SMS is currently available in Australia, Belgium, Canada, France, Germany, Ireland, Italy, New Zealand, the Netherlands, Singapore, South Africa, Spain, Switzerland, the United Kingdom, and the United States. By entering your phone number and clicking the sign-up button, you agree to receive periodic text messages from MarketBeat at the phone number you submitted, including texts that may be sent using an automatic telephone dialing system. Message and data rates may apply. Message frequency will vary. Messages will consist of stock alerts, news stories, and partner advertisements/offers. Consent is not a condition of the purchase of any goods or services. Text HELP for help/customer support. Unsubscribe at any time by replying "STOP" to any text message that you receive from MarketBeat or by visiting our mailing preferences page. Read our full terms of service and privacy policy.
Skip Chart & View Institutional Buying and Selling Data

IQLT Institutional Buying and Selling by Quarter

iShares MSCI Intl Quality Factor ETF Major Shareholders & Ownership History

Reporting DateMajor Shareholder NameShares HeldMarket Value% of PortfolioQuarterly Change in SharesOwnership in CompanyDetails
9/2/2026 Kinetic Wealth Investment Advisors LLC227,789$11.29M5.3%N/A0.083%
9/2/2026 Citadel Advisors LLC30,936$1.53M0.0%-5.9%0.011%
8/27/2026 Corient Private Wealth LP2,789,127$138.20M0.2%+7.9%1.012%
8/25/2026 Advus Financial Partners LLC373,060$18.49M4.2%-3.8%0.135%
8/25/2026 Tobias Financial Advisors Inc.1,061,444$52.60M6.4%+3.3%0.385%
8/23/2026 Hyundai Investments Co. Ltd.11,576$571K0.6%+157.1%0.004%
8/23/2026 Ameritas Advisory Services LLC427,701$21.19M0.4%+209.7%0.155%
8/23/2026 Wedmont Private Capital4,128$205K0.0%N/A0.001%
8/23/2026 HB Wealth Management LLC108,416$5.37M0.0%+313.1%0.039%
8/22/2026 SVRN Asset Management LLC243,304$12.06M6.2%+63.6%0.088%
8/22/2026 Shum Financial Group Inc.95,491$4.73M2.6%+10.8%0.035%
8/22/2026 Investor s Fiduciary Advisor Network LLC67,405$3.34M1.1%+18.9%0.024%
8/22/2026 Legacy Wealth Managment LLC ID4,838$240K0.1%+125.1%0.002%
8/22/2026 TD Waterhouse Canada Inc.56,289$2.76M0.0%-14.3%0.020%
8/22/2026 Kickstand Ventures LLC.6,131$304K0.1%+9.9%0.002%
8/22/2026 Concurrent Investment Advisors LLC12,269$608K0.0%N/A0.004%
8/21/2026 Integrity Financial Corp WA34,371$1.70M0.8%-14.1%0.012%
8/21/2026 Andina Capital Management LLC10,419$516K0.8%-50.7%0.004%
8/21/2026 Ewing Morris & Co. Investment Partners Ltd.202,585$10.04M5.2%+0.4%0.074%
8/21/2026 MBA Advisors LLC317,950$15.75M5.1%+7.9%0.115%
8/21/2026 Firestone Capital Management23,048$1.14M0.2%+1.4%0.008%
8/21/2026 Keeler Thomas Management LLC4,532$225K0.1%N/A0.002%
8/21/2026 Triumph Capital Management19,159$949K0.2%-35.6%0.007%
8/20/2026 Orgel Wealth Management LLC17,691$877K0.0%N/A0.006%
8/7/2026 Trust Co. of Vermont3,478$172K0.0%N/A0.001%
7/10/2026 JFS Wealth Advisors LLC2,321$115K0.0%+19.0%0.001%
7/10/2026 LVM Capital Management Ltd. MI400,574$19.85M1.7%+0.1%0.145%
7/10/2026 Warner Financial Inc.95,167$4.72M1.4%+1.9%0.035%
7/9/2026 Baron Financial Group LLC99,720$4.94M2.4%-0.5%0.036%
7/9/2026 World Equity Group Inc.7,249$359K0.1%+6.1%0.003%
7/9/2026 Professional Financial Advisors LLC63,878$3.17M0.5%+0.9%0.023%
7/9/2026 Focus Financial Network Inc.5,697$282K0.0%-97.7%0.002%
7/9/2026 Kastel Capital Advisors LLC6,928$320K0.2%-88.5%0.003%
7/9/2026 Sax Wealth Advisors LLC40,553$1.88M0.1%+2.0%0.015%
7/9/2026 OxenFree Capital LLC111,864$5.53M2.5%-28.2%0.041%
7/9/2026 Breakwater Capital Group306,866$15.21M1.8%+4.1%0.111%
7/9/2026 Sunburst Financial Group LLC812,667$40.27M6.6%+6.8%0.295%
7/9/2026 Crumly & Associates Inc.90,578$4.49M0.9%-17.5%0.033%
7/8/2026 Factor Wealth Management LTD4,160$206K0.0%N/A0.002%
7/8/2026 RVW Wealth LLC958,361$47.49M3.1%+4.0%0.348%
Bank of America grew this stake 139% (Ad)

Bank of America raised its stake in a small gold company by 139%. Jane Street increased its position by 159%, and Millennium by 122%. Kopernik Global made it their largest holding, owning roughly 8% of the company. It holds rights to an 88 million ounce deposit with existing roads, power, and permits that never expire. Market cap sits near $4 billion against a deposit worth hundreds of billions at current gold prices.tc pixel

See the name, ticker, and full file now
7/8/2026 Apella Capital LLC84,983$4.20M0.1%-3.1%0.031%
7/8/2026 Thrive Wealth Management LLC91,017$4.51M0.6%+0.3%0.033%
7/8/2026 Archer Investment Management LLC19,384$960K0.3%-5.3%0.007%
7/7/2026 SFM LLC97,261$4.82M2.5%+10.9%0.035%
7/7/2026 Foster Group Inc.540,922$26.80M0.7%+2.3%0.196%
7/7/2026 JGP Wealth Management LLC16,875$836K0.1%+45.4%0.006%
7/7/2026 Dynamic Advisor Solutions LLC141,796$7.03M0.2%+3.6%0.051%
7/7/2026 GK Wealth Management LLC10,323$512K0.3%N/A0.004%
7/7/2026 Avior Wealth Management LLC6,162$305K0.0%-7.4%0.002%
7/7/2026 Crescent Sterling Ltd.13,980$693K0.6%+2.5%0.005%
7/7/2026 CoreCap Advisors LLC30,874$1.53M0.0%-4.9%0.011%
7/7/2026 Howard Financial Services LTD.517,003$25.62M2.6%+8.5%0.188%
7/6/2026 Longview Financial Advisors Inc.328,406$16.27M9.5%+1.7%0.119%
7/2/2026 Box Hill Private Wealth LLC33,987$1.68M1.4%+4.2%0.012%
7/1/2026 Eastern Bank175,945$8.72M0.1%-50.1%0.067%
6/16/2026 Steelhead Wealth Management LLC6,471$299K0.2%N/A0.002%
6/11/2026 Three Bearings Fiduciary Advisors Inc.59,695$2.76M2.7%-0.5%0.023%
6/3/2026 Parallel Advisors LLC158,688$7.34M0.1%-27.4%0.060%
6/3/2026 NewEdge Advisors LLC304,095$14.06M0.1%-4.4%0.115%
5/27/2026 Allen Capital Group LLC1,016,646$47M4.2%+0.6%0.386%
5/26/2026 Glenmede Trust Co. NA5,630$260K0.0%-11.2%0.002%
5/22/2026 WNY Asset Management LLC22,113$1.02M0.1%N/A0.008%
5/22/2026 Segall Bryant & Hamill LLC112,294$5.27M0.1%N/A0.043%
5/22/2026 Verus Capital Partners LLC282,921$13.08M0.9%+2.5%0.107%
5/21/2026 Raab & Moskowitz Asset Management LLC32,885$1.52M0.3%+3.0%0.012%
5/20/2026 Arete Wealth Advisors LLC26,168$1.21M0.1%-1.8%0.010%
5/19/2026 Bank of America Corp DE7,773,236$359.36M0.0%-70.5%2.950%
5/19/2026 Centaurus Financial Inc.129,844$6.00M0.3%+5.7%0.049%
5/19/2026 Arkadios Wealth Advisors56,316$2.60M0.0%-71.8%0.021%
5/19/2026 Arete Wealth Advisors LLC26,168$1.21M0.1%-1.8%0.010%
5/18/2026 Royal Bank of Canada1,302,963$60.24M0.0%-24.2%0.494%
5/16/2026 Glen Eagle Advisors LLC144,882$6.70M0.9%+39,812.4%0.055%
5/16/2026 Quantinno Capital Management LP75,812$3.51M0.0%+52.3%0.029%
5/15/2026 Gateway Wealth Partners LLC14,096$652K0.0%+110.8%0.005%
5/15/2026 Blue Chip Partners LLC16,864$780K0.1%-1.9%0.006%
5/15/2026 Valence8 US LP846,133$39.12M13.7%-8.3%0.321%
5/15/2026 Waverly Advisors LLC36,267$1.68M0.0%+629.4%0.014%
5/14/2026 CLG LLC38,282$1.77M0.4%+29.1%0.015%
5/14/2026 Modern Wealth Management LLC1,396,649$65.46M1.1%+35.9%0.530%
5/13/2026 Cetera Investment Advisers4,443,240$205.41M0.2%-0.2%1.686%
5/13/2026 Wealthspire Retirement LLC264,498$12.23M0.7%-2.6%0.100%
5/13/2026 NewEdge Wealth LLC690,567$31.93M0.4%+0.3%0.262%
5/8/2026 PNC Financial Services Group Inc.17,309,402$800.21M0.5%-5.1%6.569%
5/8/2026 Madison Asset Management LLC83,791$3.87M0.0%-1.5%0.032%
5/8/2026 Maimon Wealth Management LTD.45,972$2.06M1.8%+8.5%0.017%
5/8/2026 Johnson Financial Group Inc.5,286$244K0.0%-18.5%0.002%
5/7/2026 Legacy Wealth Managment LLC ID2,149$99K0.0%N/A0.001%
5/7/2026 AlTi Global Inc.228,493$10.56M0.2%-5.0%0.087%
5/7/2026 Wells Financial Advisors INC9,326$431K2.0%-13.7%0.004%
5/7/2026 Parallel Advisors LLC158,688$7.34M0.1%-27.4%0.060%
Bezos… DOOMED (Ad)

A single FCC filing hints Elon Musk is planning his biggest project yet - bigger than Tesla, SpaceX, and X combined - aimed at the $25 trillion AI industry. James Altucher says the plan could cut Amazon out of the AI race and disrupt Blue Origin, with a key deadline landing September 25.tc pixel

Watch James Altucher's free video breakdown before the September 25 deadline.
5/7/2026 Greenwood Gearhart LLC21,835$1.01M0.1%-2.1%0.008%
5/7/2026 Liberty Square Wealth Partners LLC145,865$6.74M1.9%-12.6%0.055%
5/7/2026 Palladiem LLC115,219$5.57M5.3%-4.5%0.044%
5/7/2026 Ascent Wealth Partners LLC457,635$21.16M2.5%+8.8%0.174%
5/7/2026 Heartland Advisors Inc.4,299$199K0.0%-50.5%0.002%
5/6/2026 Frontier Asset Management LLC344,209$15.91M3.3%+2.0%0.131%
5/6/2026 Modera Wealth Management LLC5,552$257K0.0%-9.3%0.002%
5/6/2026 Assetmark Inc.5,106$236K0.0%-52.4%0.002%
5/6/2026 W.G. Shaheen & Associates DBA Whitney & Co67,325$3.11M0.3%+4.6%0.026%
5/5/2026 Wealthfront Advisers LLC51,331$2.37M0.0%+12.1%0.019%


IQLT Institutional Ownership - Frequently Asked Questions

During the previous two years, 653 institutional investors and hedge funds held shares of iShares MSCI Intl Quality Factor ETF. The most heavily invested institutionals were Northwestern Mutual Wealth Management Co. ($2.51B), PNC Financial Services Group Inc. ($800.21M), Envestnet Asset Management Inc. ($696.02M), Richard Bernstein Advisors LLC ($579.51M), Ameriprise Financial Inc. ($393.24M), Bank of America Corp DE ($359.36M), and Empirical Financial Services LLC d.b.a. Empirical Wealth Management ($316.21M).Learn more on iShares MSCI Intl Quality Factor ETF's institutional investors.

Of the 578 institutional investors that purchased iShares MSCI Intl Quality Factor ETF's stock in the last 24 months, the following investors and hedge funds have bought the highest volume of shares: Northwestern Mutual Wealth Management Co. ($52.89M), Richard Bernstein Advisors LLC ($8.37M), Bank of America Corp DE ($5.74M), Empirical Financial Services LLC d.b.a. Empirical Wealth Management ($4.12M), Ameriprise Financial Inc. ($3.58M), JPMorgan Chase & Co. ($2.71M), and OpenArc Corporate Advisory LLC ($1.99M).

Institutional investors have bought a total of 49,322,396 shares in the last 24 months. This purchase volume represents approximately $2.21B in transactions.

Of the 237 institutional investors that sold iShares MSCI Intl Quality Factor ETF's stock in the last 24 months, the following investors and hedge funds have sold the highest volume of shares: Northwestern Mutual Wealth Management Co. ($35.65M), Bank of America Corp DE ($18.58M), PNC Financial Services Group Inc. ($14.26M), JPMorgan Chase & Co. ($6.50M), Corient Private Wealth LLC ($4.91M), Envestnet Asset Management Inc. ($3.08M), and Victory Capital Management Inc. ($1.29M).

Institutional investors have sold a total of 95,541,525 shares in the last 24 months. This volume of shares sold represents approximately $4.33B in transactions.



Institutional ownership data for NYSEARCA:IQLT is compiled from quarterly 13F filings submitted to the U.S. Securities and Exchange Commission (SEC), with the most recent received on 9/2/2026. New 13F filings are added each quarter as they're published.
From Our Partners